createdAt,value
2022-11-12T00:01:57.173Z,6.30
2022-11-12T00:04:43.757Z,5.55
2022-11-12T00:07:49.046Z,3.60
2022-11-12T00:10:36.825Z,5.00
2022-11-12T00:13:23.217Z,3.40
2022-11-12T00:16:09.846Z,3.05
2022-11-12T00:18:56.351Z,2.88
2022-11-12T00:21:42.971Z,5.03
2022-11-12T00:24:30.251Z,6.23
2022-11-12T00:27:16.641Z,3.95
2022-11-12T00:30:03.373Z,4.25
2022-11-12T00:32:54.620Z,3.95
2022-11-12T00:38:27.425Z,4.35
2022-11-12T00:41:14.268Z,4.53
2022-11-12T00:44:00.842Z,3.22
2022-11-12T00:46:47.442Z,3.20
2022-11-12T00:49:33.937Z,3.47
2022-11-12T00:52:21.540Z,4.75
2022-11-12T00:55:08.441Z,3.17
2022-11-12T00:57:54.558Z,4.55
2022-11-12T01:00:41.219Z,3.42
2022-11-12T01:03:28.561Z,2.27
2022-11-12T01:06:19.411Z,3.13
2022-11-12T01:09:05.649Z,6.53
2022-11-12T01:11:52.243Z,7.00
2022-11-12T01:14:39.570Z,2.83
2022-11-12T01:17:26.058Z,7.90
2022-11-12T01:20:26.878Z,3.27
2022-11-12T01:23:13.437Z,6.40
2022-11-12T01:26:07.439Z,5.13
2022-11-12T01:28:54.413Z,4.17
2022-11-12T01:31:40.645Z,3.42
2022-11-12T01:34:27.523Z,4.17
2022-11-12T01:37:15.777Z,5.70
2022-11-12T01:40:02.231Z,3.73
2022-11-12T01:42:53.252Z,5.60
2022-11-12T01:45:46.992Z,4.07
2022-11-12T01:48:39.916Z,2.50
2022-11-12T01:51:34.849Z,3.40
2022-11-12T01:54:22.892Z,3.33
2022-11-12T01:57:13.005Z,3.73
2022-11-12T02:00:07.335Z,2.47
2022-11-12T02:02:58.965Z,3.17
2022-11-12T02:05:48.589Z,2.88
2022-11-12T02:08:35.815Z,2.95
2022-11-12T02:11:22.606Z,2.47
2022-11-12T02:14:08.925Z,3.57
2022-11-12T02:16:55.581Z,4.03
2022-11-12T02:19:42.111Z,3.00
2022-11-12T02:22:28.694Z,2.60
2022-11-12T02:25:19.951Z,2.93
2022-11-12T02:28:08.423Z,2.45
2022-11-12T02:30:54.773Z,2.30
2022-11-12T02:33:50.319Z,3.47
2022-11-12T02:36:36.650Z,3.03
2022-11-12T02:39:23.216Z,2.50
2022-11-12T02:42:09.827Z,4.77
2022-11-12T02:44:56.341Z,3.80
2022-11-12T02:47:42.933Z,2.70
2022-11-12T02:50:29.392Z,2.90
2022-11-12T02:53:15.836Z,3.87
2022-11-12T02:56:02.423Z,4.37
2022-11-12T02:58:49.214Z,2.47
2022-11-12T03:01:35.948Z,3.53
2022-11-12T03:04:22.186Z,5.07
2022-11-12T03:07:08.867Z,3.33
2022-11-12T03:09:55.286Z,5.03
2022-11-12T03:12:41.790Z,2.73
2022-11-12T03:15:29.735Z,3.00
2022-11-12T03:18:16.516Z,2.50
2022-11-12T03:21:03.562Z,3.73
2022-11-12T03:23:50.333Z,2.97
2022-11-12T03:26:36.861Z,3.23
2022-11-12T03:29:23.462Z,3.17
2022-11-12T03:32:10.025Z,2.63
2022-11-12T03:34:56.586Z,4.53
2022-11-12T03:37:43.216Z,2.77
2022-11-12T03:40:30.498Z,3.10
2022-11-12T03:43:17.033Z,7.90
2022-11-12T03:46:17.014Z,4.13
2022-11-12T03:49:03.477Z,2.70
2022-11-12T03:51:50.037Z,2.73
2022-11-12T03:54:36.585Z,2.47
2022-11-12T03:57:23.084Z,3.13
2022-11-12T04:00:11.818Z,5.23
2022-11-12T04:02:59.092Z,2.70
2022-11-12T04:06:04.112Z,3.70
2022-11-12T04:08:50.758Z,3.07
2022-11-12T04:12:22.183Z,4.33
2022-11-12T04:15:08.926Z,2.70
2022-11-12T04:18:13.816Z,4.03
2022-11-12T04:21:19.030Z,3.50
2022-11-12T04:24:05.855Z,4.10
2022-11-12T04:26:52.323Z,3.07
2022-11-12T04:29:57.224Z,3.17
2022-11-12T04:32:55.969Z,2.70
2022-11-12T04:36:08.306Z,3.13
2022-11-12T04:38:54.972Z,2.90
2022-11-12T04:41:59.824Z,9.57
2022-11-12T04:45:03.636Z,7.87
2022-11-12T04:47:49.862Z,2.10
2022-11-12T04:50:36.940Z,2.87
2022-11-12T04:53:24.196Z,2.87
2022-11-12T04:56:10.736Z,6.40
2022-11-12T04:58:57.188Z,5.03
2022-11-12T05:02:12.285Z,2.80
2022-11-12T05:04:58.651Z,2.80
2022-11-12T05:07:45.186Z,2.90
2022-11-12T05:10:31.744Z,3.23
2022-11-12T05:13:18.353Z,2.97
2022-11-12T05:16:05.146Z,3.37
2022-11-12T05:18:51.533Z,3.00
2022-11-12T05:22:05.951Z,2.50
2022-11-12T05:24:52.354Z,2.33
2022-11-12T05:27:38.855Z,2.43
2022-11-12T05:30:25.424Z,3.27
2022-11-12T05:33:12.039Z,3.03
2022-11-12T05:35:58.593Z,6.60
2022-11-12T05:38:45.175Z,2.37
2022-11-12T05:41:51.083Z,3.73
2022-11-12T05:44:37.992Z,3.73
2022-11-12T05:47:24.471Z,5.83
2022-11-12T05:50:11.461Z,3.70
2022-11-12T05:52:57.640Z,3.60
2022-11-12T05:55:44.139Z,3.20
2022-11-12T05:58:31.421Z,2.63
2022-11-12T06:01:17.885Z,3.70
2022-11-12T06:04:04.797Z,4.20
2022-11-12T06:06:51.104Z,5.00
2022-11-12T06:09:37.431Z,6.73
2022-11-12T06:12:24.027Z,3.03
2022-11-12T06:15:10.745Z,4.13
2022-11-12T06:17:56.849Z,3.23
2022-11-12T06:20:43.507Z,2.80
2022-11-12T06:23:30.143Z,3.37
2022-11-12T06:26:16.825Z,3.87
2022-11-12T06:29:03.130Z,3.30
2022-11-12T06:31:50.412Z,2.50
2022-11-12T06:34:45.155Z,6.30
2022-11-12T06:37:31.745Z,5.10
2022-11-12T06:40:17.968Z,3.10
2022-11-12T06:43:04.346Z,2.70
2022-11-12T06:45:50.947Z,4.83
2022-11-12T06:48:37.666Z,6.30
2022-11-12T06:51:25.642Z,3.40
2022-11-12T06:54:36.959Z,2.57
2022-11-12T06:57:22.979Z,4.50
2022-11-12T07:00:11.740Z,3.67
2022-11-12T07:02:58.237Z,3.47
2022-11-12T07:05:45.019Z,3.70
2022-11-12T07:08:31.759Z,5.67
2022-11-12T07:11:20.926Z,3.73
2022-11-12T07:14:07.887Z,6.93
2022-11-12T07:16:54.229Z,6.37
2022-11-12T07:19:40.665Z,8.33
2022-11-12T07:22:27.165Z,11.27
2022-11-12T07:25:13.802Z,4.90
2022-11-12T07:28:00.218Z,7.20
2022-11-12T07:30:46.628Z,5.43
2022-11-12T07:33:33.694Z,8.73
2022-11-12T07:36:21.387Z,8.37
2022-11-12T07:39:13.236Z,5.97
2022-11-12T07:44:48.953Z,6.10
2022-11-12T07:47:35.625Z,6.97
2022-11-12T07:50:22.018Z,4.70
2022-11-12T07:53:08.741Z,7.47
2022-11-12T07:56:04.726Z,4.77
2022-11-12T07:59:15.904Z,6.53
2022-11-12T08:02:03.133Z,6.85
2022-11-12T08:04:52.218Z,12.47
2022-11-12T08:07:39.410Z,4.07
2022-11-12T08:10:25.607Z,6.77
2022-11-12T08:13:14.775Z,3.57
2022-11-12T08:16:02.126Z,4.70
2022-11-12T08:18:49.344Z,5.33
2022-11-12T08:21:36.292Z,6.87
2022-11-12T08:24:22.996Z,6.27
2022-11-12T08:27:13.076Z,5.97
2022-11-12T08:29:59.410Z,5.63
2022-11-12T08:33:10.807Z,16.03
2022-11-12T08:39:15.961Z,8.10
2022-11-12T08:42:03.368Z,9.90
2022-11-12T08:44:50.720Z,8.18
2022-11-12T08:47:37.160Z,6.18
2022-11-12T08:50:23.753Z,6.78
2022-11-12T08:53:12.961Z,10.65
2022-11-12T08:56:00.010Z,5.90
2022-11-12T08:58:48.440Z,7.22
2022-11-12T09:01:35.024Z,9.20
2022-11-12T09:04:25.571Z,9.88
2022-11-12T09:07:28.659Z,8.20
2022-11-12T09:10:18.809Z,6.60
2022-11-12T09:13:05.422Z,8.38
2022-11-12T09:15:51.669Z,6.90
2022-11-12T09:18:43.030Z,8.05
2022-11-12T09:21:30.464Z,8.95
2022-11-12T09:24:16.455Z,7.13
2022-11-12T09:27:03.164Z,9.05
2022-11-12T09:29:49.607Z,7.28
2022-11-12T09:32:36.182Z,7.72
2022-11-12T09:35:22.657Z,6.88
2022-11-12T09:38:09.052Z,6.40
2022-11-12T09:41:34.958Z,7.25
2022-11-12T09:44:24.190Z,5.78
2022-11-12T09:47:27.819Z,8.02
2022-11-12T09:50:25.247Z,7.03
2022-11-12T09:53:23.186Z,11.00
2022-11-12T09:56:13.374Z,6.20
2022-11-12T09:58:59.761Z,8.70
2022-11-12T10:02:02.244Z,13.25
2022-11-12T10:05:22.260Z,5.65
2022-11-12T10:08:32.784Z,9.25
2022-11-12T10:12:20.519Z,6.57
2022-11-12T10:15:34.887Z,8.48
2022-11-12T10:19:04.534Z,6.82
2022-11-12T10:21:51.030Z,9.27
2022-11-12T10:24:40.159Z,8.32
2022-11-12T10:27:39.085Z,8.27
2022-11-12T10:30:26.033Z,8.23
2022-11-12T10:33:16.876Z,5.40
2022-11-12T10:36:31.314Z,8.20
2022-11-12T10:39:40.137Z,8.73
2022-11-12T10:42:27.111Z,7.18
2022-11-12T10:45:23.062Z,6.35
2022-11-12T10:48:27.583Z,5.90
2022-11-12T10:51:36.389Z,8.98
2022-11-12T10:54:37.593Z,10.13
2022-11-12T10:57:26.421Z,5.65
2022-11-12T11:00:12.958Z,8.15
2022-11-12T11:03:02.958Z,7.28
2022-11-12T11:06:05.608Z,6.88
2022-11-12T11:08:54.215Z,5.32
2022-11-12T11:11:52.102Z,7.25
2022-11-12T11:14:40.009Z,5.78
2022-11-12T11:17:26.409Z,7.25
2022-11-12T11:20:35.098Z,6.95
2022-11-12T11:23:26.473Z,7.65
2022-11-12T11:29:56.424Z,8.48
2022-11-12T11:33:10.562Z,11.77
2022-11-12T11:36:14.577Z,7.90
2022-11-12T11:39:12.695Z,9.82
2022-11-12T11:42:34.802Z,7.63
2022-11-12T11:45:56.412Z,3.80
2022-11-12T11:49:15.390Z,6.45
2022-11-12T11:52:28.918Z,3.80
2022-11-12T11:55:53.321Z,6.07
2022-11-12T11:59:26.018Z,7.28
2022-11-12T12:02:42.827Z,5.07
2022-11-12T12:06:02.099Z,4.05
2022-11-12T12:09:18.924Z,6.28
2022-11-12T12:12:29.748Z,6.50
2022-11-12T12:16:05.744Z,6.13
2022-11-12T12:19:07.425Z,4.15
2022-11-12T12:21:54.135Z,5.30
2022-11-12T12:25:17.370Z,5.30
2022-11-12T12:28:22.551Z,4.68
2022-11-12T12:31:18.453Z,5.40
2022-11-12T12:34:42.597Z,9.23
2022-11-12T12:38:05.616Z,5.30
2022-11-12T12:41:49.448Z,5.53
2022-11-12T12:45:05.027Z,4.68
2022-11-12T12:48:46.534Z,5.50
2022-11-12T12:51:34.970Z,5.90
2022-11-12T12:54:37.627Z,5.22
2022-11-12T12:57:32.685Z,4.18
2022-11-12T13:00:52.640Z,4.30
2022-11-12T13:03:49.797Z,5.18
2022-11-12T13:06:45.670Z,7.80
2022-11-12T13:09:33.275Z,5.57
2022-11-12T13:13:01.812Z,7.05
2022-11-12T13:15:50.470Z,7.80
2022-11-12T13:18:42.201Z,6.25
2022-11-12T13:21:30.273Z,5.05
2022-11-12T13:25:10.420Z,7.28
2022-11-12T13:28:21.724Z,7.43
2022-11-12T13:31:29.419Z,5.53
2022-11-12T13:34:31.564Z,5.90
2022-11-12T13:37:21.286Z,5.53
2022-11-12T13:40:19.133Z,5.55
2022-11-12T13:43:27.388Z,7.93
2022-11-12T13:46:33.580Z,6.43
2022-11-12T13:49:21.081Z,5.93
2022-11-12T13:52:09.248Z,6.32
2022-11-12T13:55:05.790Z,6.28
2022-11-12T13:57:57.189Z,7.10
2022-11-12T14:00:53.369Z,5.40
2022-11-12T14:03:48.714Z,6.50
2022-11-12T14:06:42.821Z,6.28
2022-11-12T14:10:06.098Z,6.93
2022-11-12T14:13:10.768Z,5.38
2022-11-12T14:16:32.648Z,5.75
2022-11-12T14:19:52.498Z,6.78
2022-11-12T14:22:44.773Z,8.57
2022-11-12T14:25:31.988Z,5.35
2022-11-12T14:28:36.674Z,6.88
2022-11-12T14:31:25.827Z,8.02
2022-11-12T14:34:22.374Z,9.55
2022-11-12T14:37:32.968Z,5.68
2022-11-12T14:40:29.302Z,5.88
2022-11-12T14:43:43.081Z,9.50
2022-11-12T14:46:35.279Z,6.38
2022-11-12T14:49:44.037Z,6.65
2022-11-12T14:52:42.063Z,7.80
2022-11-12T14:55:39.630Z,7.68
2022-11-12T14:58:27.941Z,8.48
2022-11-12T15:05:02.751Z,7.97
2022-11-12T15:08:11.052Z,8.65
2022-11-12T15:11:47.333Z,7.30
2022-11-12T15:14:34.440Z,7.78
2022-11-12T15:17:34.427Z,7.15
2022-11-12T15:20:33.461Z,11.52
2022-11-12T15:23:21.040Z,10.73
2022-11-12T15:26:32.731Z,10.43
2022-11-12T15:29:33.477Z,11.77
2022-11-12T15:32:19.681Z,9.52
2022-11-12T15:35:25.666Z,19.95
2022-11-12T15:38:36.207Z,20.95
2022-11-12T15:41:30.420Z,7.53
2022-11-12T15:44:16.334Z,9.40
2022-11-12T15:47:06.088Z,9.25
2022-11-12T15:49:55.278Z,7.38
2022-11-12T15:52:41.694Z,10.13
2022-11-12T15:55:28.124Z,8.77
2022-11-12T15:58:34.848Z,18.75
2022-11-12T16:01:21.299Z,9.20
2022-11-12T16:04:08.951Z,10.55
2022-11-12T16:06:57.957Z,10.18
2022-11-12T16:09:44.432Z,10.00
2022-11-12T16:12:31.095Z,37.70
2022-11-12T16:15:20.249Z,83.15
2022-11-12T16:18:09.276Z,45.03
2022-11-12T16:20:55.727Z,13.27
2022-11-12T16:23:42.493Z,12.07
2022-11-12T16:26:32.230Z,9.73
2022-11-12T16:29:18.695Z,13.70
2022-11-12T16:32:05.606Z,8.77
2022-11-12T16:34:54.683Z,8.68
2022-11-12T16:40:31.290Z,7.60
2022-11-12T16:43:17.846Z,10.00
2022-11-12T16:46:29.251Z,10.68
2022-11-12T16:49:16.335Z,11.02
2022-11-12T16:52:02.657Z,12.23
2022-11-12T16:54:50.029Z,13.13
2022-11-12T16:57:46.731Z,8.40
2022-11-12T17:00:35.147Z,11.48
2022-11-12T17:03:31.155Z,11.32
2022-11-12T17:06:19.629Z,10.32
2022-11-12T17:09:08.620Z,8.88
2022-11-12T17:11:55.245Z,10.50
2022-11-12T17:14:41.936Z,7.97
2022-11-12T17:17:28.458Z,9.20
2022-11-12T17:20:23.305Z,7.72
2022-11-12T17:23:09.894Z,8.10
2022-11-12T17:26:05.632Z,10.02
2022-11-12T17:28:59.184Z,15.05
2022-11-12T17:32:13.293Z,17.92
2022-11-12T17:35:00.292Z,15.70
2022-11-12T17:37:46.941Z,16.42
2022-11-12T17:40:33.655Z,11.63
2022-11-12T17:43:26.251Z,8.63
2022-11-12T17:46:17.310Z,16.42
2022-11-12T17:49:03.876Z,10.13
2022-11-12T17:51:52.853Z,8.23
2022-11-12T17:54:39.447Z,10.00
2022-11-12T17:57:28.115Z,10.80
2022-11-12T18:00:42.322Z,9.05
2022-11-12T18:03:29.296Z,6.60
2022-11-12T18:06:19.178Z,7.68
2022-11-12T18:09:08.939Z,9.32
2022-11-12T18:11:56.730Z,13.10
2022-11-12T18:14:43.986Z,11.82
2022-11-12T18:17:32.477Z,15.35
2022-11-12T18:20:43.463Z,11.52
2022-11-12T18:23:32.366Z,10.52
2022-11-12T18:26:20.761Z,20.38
2022-11-12T18:29:07.635Z,8.90
2022-11-12T18:31:53.695Z,10.07
2022-11-12T18:34:44.897Z,11.77
2022-11-12T18:37:32.675Z,11.73
2022-11-12T18:40:20.578Z,9.13
2022-11-12T18:43:14.720Z,7.22
2022-11-12T18:46:01.510Z,8.65
2022-11-12T18:48:48.091Z,10.23
2022-11-12T18:51:34.590Z,8.90
2022-11-12T18:54:21.211Z,7.95
2022-11-12T18:57:09.786Z,11.45
2022-11-12T18:59:56.760Z,10.23
2022-11-12T19:02:43.363Z,26.58
2022-11-12T19:05:32.726Z,13.88
2022-11-12T19:08:20.653Z,15.45
2022-11-12T19:11:13.263Z,15.02
2022-11-12T19:13:59.878Z,7.30
2022-11-12T19:16:48.343Z,10.18
2022-11-12T19:19:39.578Z,8.32
2022-11-12T19:22:26.469Z,10.20
2022-11-12T19:25:12.864Z,13.07
2022-11-12T19:27:59.363Z,11.88
2022-11-12T19:30:46.019Z,10.30
2022-11-12T19:33:33.878Z,8.05
2022-11-12T19:36:23.032Z,8.73
2022-11-12T19:39:34.292Z,9.10
2022-11-12T19:42:20.181Z,9.20
2022-11-12T19:45:08.993Z,8.23
2022-11-12T19:48:07.688Z,8.32
2022-11-12T19:51:19.396Z,9.43
2022-11-12T19:56:52.470Z,8.73
2022-11-12T20:00:11.221Z,9.07
2022-11-12T20:02:59.562Z,8.43
2022-11-12T20:05:47.084Z,8.95
2022-11-12T20:08:36.941Z,12.50
2022-11-12T20:11:23.550Z,14.32
2022-11-12T20:14:19.377Z,8.18
2022-11-12T20:17:06.107Z,8.60
2022-11-12T20:19:56.069Z,11.60
2022-11-12T20:23:07.321Z,9.35
2022-11-12T20:25:53.874Z,13.15
2022-11-12T20:29:05.189Z,18.23
2022-11-12T20:34:37.552Z,17.08
2022-11-12T20:37:24.139Z,7.72
2022-11-12T20:40:10.789Z,10.93
2022-11-12T20:43:00.358Z,7.82
2022-11-12T20:45:51.953Z,9.95
2022-11-12T20:48:43.120Z,19.92
2022-11-12T20:51:32.845Z,10.25
2022-11-12T20:54:24.158Z,12.85
2022-11-12T20:59:56.198Z,7.63
2022-11-12T21:02:42.827Z,6.45
2022-11-12T21:05:29.274Z,10.43
2022-11-12T21:08:15.788Z,11.38
2022-11-12T21:11:08.756Z,7.85
2022-11-12T21:13:55.163Z,8.35
2022-11-12T21:16:41.603Z,8.48
2022-11-12T21:19:36.710Z,10.90
2022-11-12T21:22:23.468Z,8.77
2022-11-12T21:25:12.332Z,9.73
2022-11-12T21:27:58.804Z,6.65
2022-11-12T21:30:49.785Z,8.38
2022-11-12T21:34:00.178Z,6.85
2022-11-12T21:37:11.422Z,8.07
2022-11-12T21:39:57.977Z,8.75
2022-11-12T21:42:45.111Z,6.40
2022-11-12T21:45:31.698Z,7.60
2022-11-12T21:48:23.289Z,8.00
2022-11-12T21:54:07.031Z,4.85
2022-11-12T21:57:02.416Z,7.55
2022-11-12T21:59:49.183Z,9.77
2022-11-12T22:02:35.858Z,6.07
2022-11-12T22:05:50.411Z,8.43
2022-11-12T22:08:46.799Z,7.20
2022-11-12T22:11:40.955Z,7.25
2022-11-12T22:14:28.059Z,9.68
2022-11-12T22:17:14.626Z,6.90
2022-11-12T22:20:01.238Z,6.35
2022-11-12T22:22:47.863Z,8.10
2022-11-12T22:25:39.407Z,8.65
2022-11-12T22:28:26.718Z,10.98
2022-11-12T22:31:17.322Z,8.60
2022-11-12T22:34:04.158Z,8.70
2022-11-12T22:36:50.618Z,9.20
2022-11-12T22:39:37.206Z,9.20
2022-11-12T22:42:26.023Z,7.13
2022-11-12T22:45:15.071Z,10.30
2022-11-12T22:48:03.284Z,8.23
2022-11-12T22:50:49.772Z,11.65
2022-11-12T22:53:39.681Z,8.60
2022-11-12T22:56:26.497Z,9.05
2022-11-12T22:59:17.256Z,7.90
2022-11-12T23:02:03.459Z,12.20
2022-11-12T23:04:49.934Z,9.02
2022-11-12T23:07:36.386Z,10.13
2022-11-12T23:10:22.925Z,8.85
2022-11-12T23:13:11.537Z,8.05
2022-11-12T23:16:00.841Z,8.02
2022-11-12T23:18:50.112Z,7.63
2022-11-12T23:21:37.383Z,9.93
2022-11-12T23:24:23.826Z,12.52
2022-11-12T23:27:10.424Z,8.93
2022-11-12T23:29:57.061Z,12.82
2022-11-12T23:32:44.488Z,6.32
2022-11-12T23:36:04.456Z,9.60
2022-11-12T23:38:53.687Z,7.13
2022-11-12T23:41:39.938Z,6.72
2022-11-12T23:44:26.428Z,7.00
2022-11-12T23:47:13.103Z,9.10
2022-11-12T23:49:59.791Z,7.47
2022-11-12T23:52:46.478Z,8.30
2022-11-12T23:55:38.268Z,9.93
2022-11-12T23:58:25.033Z,5.40
